sensor_id;sensor_type;location;lat;lon;timestamp;temperature;humidity
19110;DHT22;9687;50.836;12.060;2022-10-24T00:02:04;19.20;84.70
19110;DHT22;9687;50.836;12.060;2022-10-24T00:04:35;19.10;84.50
19110;DHT22;9687;50.836;12.060;2022-10-24T00:07:03;19.20;84.60
19110;DHT22;9687;50.836;12.060;2022-10-24T00:09:31;19.20;84.70
19110;DHT22;9687;50.836;12.060;2022-10-24T00:11:58;19.20;84.80
19110;DHT22;9687;50.836;12.060;2022-10-24T00:14:26;19.10;85.00
19110;DHT22;9687;50.836;12.060;2022-10-24T00:16:55;19.00;85.10
19110;DHT22;9687;50.836;12.060;2022-10-24T00:19:23;19.00;85.10
19110;DHT22;9687;50.836;12.060;2022-10-24T00:21:50;19.00;85.50
19110;DHT22;9687;50.836;12.060;2022-10-24T00:24:17;18.90;86.10
19110;DHT22;9687;50.836;12.060;2022-10-24T00:26:45;18.90;86.30
19110;DHT22;9687;50.836;12.060;2022-10-24T00:29:13;18.90;86.50
19110;DHT22;9687;50.836;12.060;2022-10-24T00:31:40;18.90;86.80
19110;DHT22;9687;50.836;12.060;2022-10-24T00:34:09;18.90;86.90
19110;DHT22;9687;50.836;12.060;2022-10-24T00:36:36;18.90;87.10
19110;DHT22;9687;50.836;12.060;2022-10-24T00:39:04;19.00;87.30
19110;DHT22;9687;50.836;12.060;2022-10-24T00:41:33;19.00;87.40
19110;DHT22;9687;50.836;12.060;2022-10-24T00:44:21;19.00;87.40
19110;DHT22;9687;50.836;12.060;2022-10-24T00:46:52;19.00;87.50
19110;DHT22;9687;50.836;12.060;2022-10-24T00:49:23;19.00;87.40
19110;DHT22;9687;50.836;12.060;2022-10-24T00:51:54;19.00;87.50
19110;DHT22;9687;50.836;12.060;2022-10-24T00:54:22;18.90;87.40
19110;DHT22;9687;50.836;12.060;2022-10-24T00:56:58;19.00;87.60
19110;DHT22;9687;50.836;12.060;2022-10-24T00:59:27;19.00;87.70
19110;DHT22;9687;50.836;12.060;2022-10-24T01:01:54;19.10;87.80
19110;DHT22;9687;50.836;12.060;2022-10-24T01:04:24;19.10;88.70
19110;DHT22;9687;50.836;12.060;2022-10-24T01:07:09;19.10;87.90
19110;DHT22;9687;50.836;12.060;2022-10-24T02:11:15;19.60;87.50
19110;DHT22;9687;50.836;12.060;2022-10-24T02:13:44;19.60;87.30
19110;DHT22;9687;50.836;12.060;2022-10-24T02:16:17;19.60;87.30
19110;DHT22;9687;50.836;12.060;2022-10-24T02:18:45;19.60;87.30
19110;DHT22;9687;50.836;12.060;2022-10-24T02:21:19;19.60;87.30
19110;DHT22;9687;50.836;12.060;2022-10-24T02:23:51;19.70;87.40
19110;DHT22;9687;50.836;12.060;2022-10-24T02:26:27;19.70;87.20
19110;DHT22;9687;50.836;12.060;2022-10-24T02:29:00;19.70;87.10
19110;DHT22;9687;50.836;12.060;2022-10-24T02:31:32;19.80;87.10
19110;DHT22;9687;50.836;12.060;2022-10-24T02:34:03;19.80;86.90
19110;DHT22;9687;50.836;12.060;2022-10-24T02:36:33;19.80;86.80
19110;DHT22;9687;50.836;12.060;2022-10-24T02:39:03;19.80;86.70
19110;DHT22;9687;50.836;12.060;2022-10-24T02:41:35;19.80;86.70
19110;DHT22;9687;50.836;12.060;2022-10-24T02:44:04;19.80;86.50
19110;DHT22;9687;50.836;12.060;2022-10-24T02:46:33;19.80;86.40
19110;DHT22;9687;50.836;12.060;2022-10-24T02:49:03;19.80;86.40
19110;DHT22;9687;50.836;12.060;2022-10-24T02:51:33;19.80;86.40
19110;DHT22;9687;50.836;12.060;2022-10-24T02:54:02;19.80;86.20
19110;DHT22;9687;50.836;12.060;2022-10-24T02:56:30;19.80;86.10
19110;DHT22;9687;50.836;12.060;2022-10-24T02:58:59;19.70;86.20
19110;DHT22;9687;50.836;12.060;2022-10-24T03:01:27;19.70;86.30
19110;DHT22;9687;50.836;12.060;2022-10-24T03:03:54;19.70;86.30
19110;DHT22;9687;50.836;12.060;2022-10-24T03:06:21;19.70;86.30
19110;DHT22;9687;50.836;12.060;2022-10-24T03:08:49;19.70;86.30
19110;DHT22;9687;50.836;12.060;2022-10-24T06:13:07;18.70;89.20
19110;DHT22;9687;50.836;12.060;2022-10-24T06:15:34;18.70;89.30
19110;DHT22;9687;50.836;12.060;2022-10-24T06:18:02;18.70;89.40
19110;DHT22;9687;50.836;12.060;2022-10-24T06:20:29;18.70;89.50
19110;DHT22;9687;50.836;12.060;2022-10-24T06:22:56;18.70;89.60
19110;DHT22;9687;50.836;12.060;2022-10-24T06:25:24;18.70;89.60
19110;DHT22;9687;50.836;12.060;2022-10-24T06:27:52;18.70;89.50
19110;DHT22;9687;50.836;12.060;2022-10-24T06:30:20;18.80;89.50
19110;DHT22;9687;50.836;12.060;2022-10-24T06:32:48;18.80;89.40
19110;DHT22;9687;50.836;12.060;2022-10-24T06:35:16;18.80;89.30
19110;DHT22;9687;50.836;12.060;2022-10-24T06:37:45;18.80;89.20
19110;DHT22;9687;50.836;12.060;2022-10-24T06:40:12;18.80;89.20
19110;DHT22;9687;50.836;12.060;2022-10-24T06:42:40;18.80;89.90
19110;DHT22;9687;50.836;12.060;2022-10-24T06:45:08;18.90;89.40
19110;DHT22;9687;50.836;12.060;2022-10-24T06:47:37;18.90;89.40
19110;DHT22;9687;50.836;12.060;2022-10-24T06:50:05;18.90;89.40
19110;DHT22;9687;50.836;12.060;2022-10-24T06:52:33;18.80;89.30
19110;DHT22;9687;50.836;12.060;2022-10-24T06:55:02;18.80;89.30
19110;DHT22;9687;50.836;12.060;2022-10-24T06:57:30;18.90;89.50
19110;DHT22;9687;50.836;12.060;2022-10-24T06:59:57;18.90;89.50
19110;DHT22;9687;50.836;12.060;2022-10-24T07:02:25;18.90;89.50
19110;DHT22;9687;50.836;12.060;2022-10-24T07:04:56;18.90;89.60
19110;DHT22;9687;50.836;12.060;2022-10-24T07:07:23;18.90;89.80
19110;DHT22;9687;50.836;12.060;2022-10-24T07:09:52;18.90;89.70
19110;DHT22;9687;50.836;12.060;2022-10-24T07:12:20;19.00;89.90
19110;DHT22;9687;50.836;12.060;2022-10-24T07:14:48;18.90;89.90
19110;DHT22;9687;50.836;12.060;2022-10-24T07:17:16;19.00;89.90
19110;DHT22;9687;50.836;12.060;2022-10-24T07:19:52;19.00;90.00
19110;DHT22;9687;50.836;12.060;2022-10-24T07:22:42;19.00;90.00
19110;DHT22;9687;50.836;12.060;2022-10-24T07:25:10;19.00;90.00
19110;DHT22;9687;50.836;12.060;2022-10-24T07:27:37;19.00;90.00
19110;DHT22;9687;50.836;12.060;2022-10-24T07:30:06;19.00;90.10
19110;DHT22;9687;50.836;12.060;2022-10-24T07:32:34;19.00;90.20
19110;DHT22;9687;50.836;12.060;2022-10-24T07:35:02;19.10;90.20
19110;DHT22;9687;50.836;12.060;2022-10-24T07:37:29;19.10;90.20
19110;DHT22;9687;50.836;12.060;2022-10-24T07:39:58;19.10;90.20
19110;DHT22;9687;50.836;12.060;2022-10-24T07:42:25;19.10;90.30
19110;DHT22;9687;50.836;12.060;2022-10-24T07:44:53;19.00;90.20
19110;DHT22;9687;50.836;12.060;2022-10-24T07:47:20;19.00;90.20
19110;DHT22;9687;50.836;12.060;2022-10-24T07:49:48;19.00;90.40
19110;DHT22;9687;50.836;12.060;2022-10-24T07:52:16;19.00;90.40
19110;DHT22;9687;50.836;12.060;2022-10-24T07:54:43;19.00;90.40
19110;DHT22;9687;50.836;12.060;2022-10-24T07:57:12;19.00;90.40
19110;DHT22;9687;50.836;12.060;2022-10-24T07:59:40;19.00;90.50
19110;DHT22;9687;50.836;12.060;2022-10-24T08:02:08;19.00;90.50
19110;DHT22;9687;50.836;12.060;2022-10-24T08:04:36;19.00;90.70
19110;DHT22;9687;50.836;12.060;2022-10-24T08:07:04;18.90;91.10
19110;DHT22;9687;50.836;12.060;2022-10-24T08:09:36;18.90;91.30
19110;DHT22;9687;50.836;12.060;2022-10-24T08:12:04;18.90;91.40
19110;DHT22;9687;50.836;12.060;2022-10-24T08:14:33;18.90;91.40
19110;DHT22;9687;50.836;12.060;2022-10-24T08:17:01;19.00;91.40
19110;DHT22;9687;50.836;12.060;2022-10-24T08:19:30;19.00;91.40
19110;DHT22;9687;50.836;12.060;2022-10-24T08:22:00;19.00;91.20
19110;DHT22;9687;50.836;12.060;2022-10-24T08:24:29;19.00;91.30
19110;DHT22;9687;50.836;12.060;2022-10-24T08:26:56;19.10;91.60
19110;DHT22;9687;50.836;12.060;2022-10-24T08:29:24;19.10;91.30
19110;DHT22;9687;50.836;12.060;2022-10-24T08:31:54;19.10;91.20
19110;DHT22;9687;50.836;12.060;2022-10-24T08:34:22;19.20;91.30
19110;DHT22;9687;50.836;12.060;2022-10-24T08:36:50;19.20;91.20
19110;DHT22;9687;50.836;12.060;2022-10-24T08:39:17;19.30;91.10
19110;DHT22;9687;50.836;12.060;2022-10-24T08:41:48;19.30;91.00
19110;DHT22;9687;50.836;12.060;2022-10-24T08:44:20;19.30;90.90
19110;DHT22;9687;50.836;12.060;2022-10-24T08:46:56;19.40;91.00
19110;DHT22;9687;50.836;12.060;2022-10-24T08:49:32;19.40;90.90
19110;DHT22;9687;50.836;12.060;2022-10-24T08:52:03;19.40;90.70
19110;DHT22;9687;50.836;12.060;2022-10-24T08:54:35;19.50;90.50
19110;DHT22;9687;50.836;12.060;2022-10-24T08:57:05;19.50;90.60
19110;DHT22;9687;50.836;12.060;2022-10-24T08:59:34;19.50;90.50
19110;DHT22;9687;50.836;12.060;2022-10-24T09:02:12;19.60;90.90
19110;DHT22;9687;50.836;12.060;2022-10-24T09:04:45;19.60;90.50
19110;DHT22;9687;50.836;12.060;2022-10-24T09:07:17;19.60;90.50
19110;DHT22;9687;50.836;12.060;2022-10-24T09:09:48;19.60;90.50
19110;DHT22;9687;50.836;12.060;2022-10-24T09:12:18;19.50;90.50
19110;DHT22;9687;50.836;12.060;2022-10-24T09:14:56;19.50;90.50
19110;DHT22;9687;50.836;12.060;2022-10-24T09:17:29;19.50;90.50
19110;DHT22;9687;50.836;12.060;2022-10-24T09:19:59;19.60;90.50
19110;DHT22;9687;50.836;12.060;2022-10-24T09:22:28;19.60;90.50
19110;DHT22;9687;50.836;12.060;2022-10-24T09:24:58;19.60;90.50
19110;DHT22;9687;50.836;12.060;2022-10-24T09:27:29;19.50;90.40
19110;DHT22;9687;50.836;12.060;2022-10-24T09:29:57;19.60;90.40
19110;DHT22;9687;50.836;12.060;2022-10-24T09:32:28;19.60;90.30
19110;DHT22;9687;50.836;12.060;2022-10-24T09:34:58;19.70;90.20
19110;DHT22;9687;50.836;12.060;2022-10-24T09:37:32;19.70;90.20
19110;DHT22;9687;50.836;12.060;2022-10-24T09:40:06;19.70;90.00
19110;DHT22;9687;50.836;12.060;2022-10-24T09:42:34;19.80;89.90
19110;DHT22;9687;50.836;12.060;2022-10-24T09:45:27;19.80;89.70
19110;DHT22;9687;50.836;12.060;2022-10-24T09:47:58;19.80;89.50
19110;DHT22;9687;50.836;12.060;2022-10-24T09:50:27;19.90;89.40
19110;DHT22;9687;50.836;12.060;2022-10-24T09:52:57;19.90;89.30
19110;DHT22;9687;50.836;12.060;2022-10-24T09:55:27;19.90;89.10
19110;DHT22;9687;50.836;12.060;2022-10-24T09:57:58;20.00;88.90
19110;DHT22;9687;50.836;12.060;2022-10-24T10:00:33;20.00;88.90
19110;DHT22;9687;50.836;12.060;2022-10-24T10:03:18;20.00;88.60
19110;DHT22;9687;50.836;12.060;2022-10-24T10:05:47;20.00;88.80
19110;DHT22;9687;50.836;12.060;2022-10-24T10:08:19;20.00;88.30
19110;DHT22;9687;50.836;12.060;2022-10-24T10:10:57;20.10;88.60
19110;DHT22;9687;50.836;12.060;2022-10-24T10:13:26;20.10;88.60
19110;DHT22;9687;50.836;12.060;2022-10-24T10:15:55;20.10;88.40
19110;DHT22;9687;50.836;12.060;2022-10-24T10:18:32;20.20;88.20
19110;DHT22;9687;50.836;12.060;2022-10-24T10:21:06;20.20;87.90
19110;DHT22;9687;50.836;12.060;2022-10-24T10:23:37;20.30;87.60
19110;DHT22;9687;50.836;12.060;2022-10-24T10:26:14;20.30;87.40
19110;DHT22;9687;50.836;12.060;2022-10-24T10:28:49;20.40;87.20
19110;DHT22;9687;50.836;12.060;2022-10-24T10:31:19;20.40;86.60
19110;DHT22;9687;50.836;12.060;2022-10-24T10:36:47;20.40;86.20
19110;DHT22;9687;50.836;12.060;2022-10-24T10:42:14;20.40;85.50
19110;DHT22;9687;50.836;12.060;2022-10-24T10:45:02;20.40;85.20
19110;DHT22;9687;50.836;12.060;2022-10-24T10:47:41;20.40;84.90
19110;DHT22;9687;50.836;12.060;2022-10-24T10:50:25;20.40;84.70
19110;DHT22;9687;50.836;12.060;2022-10-24T10:52:58;20.50;84.80
19110;DHT22;9687;50.836;12.060;2022-10-24T10:55:38;20.50;84.70
19110;DHT22;9687;50.836;12.060;2022-10-24T10:58:20;20.50;84.40
19110;DHT22;9687;50.836;12.060;2022-10-24T11:00:53;20.50;84.30
19110;DHT22;9687;50.836;12.060;2022-10-24T11:03:31;20.50;84.30
19110;DHT22;9687;50.836;12.060;2022-10-24T11:06:13;20.50;84.30
19110;DHT22;9687;50.836;12.060;2022-10-24T11:08:55;20.50;83.90
19110;DHT22;9687;50.836;12.060;2022-10-24T11:11:26;20.50;83.60
19110;DHT22;9687;50.836;12.060;2022-10-24T11:13:57;20.50;83.50
19110;DHT22;9687;50.836;12.060;2022-10-24T13:29:13;20.70;79.40
19110;DHT22;9687;50.836;12.060;2022-10-24T13:31:46;20.70;79.40
19110;DHT22;9687;50.836;12.060;2022-10-24T13:34:26;20.70;79.50
19110;DHT22;9687;50.836;12.060;2022-10-24T13:37:11;20.80;79.60
19110;DHT22;9687;50.836;12.060;2022-10-24T13:39:44;20.80;79.70
19110;DHT22;9687;50.836;12.060;2022-10-24T13:42:26;20.70;79.70
19110;DHT22;9687;50.836;12.060;2022-10-24T13:44:59;20.70;79.90
19110;DHT22;9687;50.836;12.060;2022-10-24T13:47:30;20.70;79.90
19110;DHT22;9687;50.836;12.060;2022-10-24T13:50:04;20.70;80.00
19110;DHT22;9687;50.836;12.060;2022-10-24T13:52:36;20.80;80.20
19110;DHT22;9687;50.836;12.060;2022-10-24T13:55:17;20.80;80.30
19110;DHT22;9687;50.836;12.060;2022-10-24T13:57:52;20.80;80.30
19110;DHT22;9687;50.836;12.060;2022-10-24T14:00:24;20.80;80.50
19110;DHT22;9687;50.836;12.060;2022-10-24T14:02:53;20.80;80.60
19110;DHT22;9687;50.836;12.060;2022-10-24T14:05:33;20.70;80.80
19110;DHT22;9687;50.836;12.060;2022-10-24T14:08:01;20.70;80.80
19110;DHT22;9687;50.836;12.060;2022-10-24T14:10:29;20.70;81.10
19110;DHT22;9687;50.836;12.060;2022-10-24T14:12:58;20.70;81.20
19110;DHT22;9687;50.836;12.060;2022-10-24T14:15:29;20.70;81.20
19110;DHT22;9687;50.836;12.060;2022-10-24T14:17:59;20.70;81.30
19110;DHT22;9687;50.836;12.060;2022-10-24T14:20:30;20.70;81.20
19110;DHT22;9687;50.836;12.060;2022-10-24T14:22:58;20.70;80.90
19110;DHT22;9687;50.836;12.060;2022-10-24T14:25:31;20.70;80.80
19110;DHT22;9687;50.836;12.060;2022-10-24T14:28:06;20.70;80.70
19110;DHT22;9687;50.836;12.060;2022-10-24T14:30:37;20.70;80.80
19110;DHT22;9687;50.836;12.060;2022-10-24T14:33:20;20.70;80.90
19110;DHT22;9687;50.836;12.060;2022-10-24T14:35:49;20.80;80.80
19110;DHT22;9687;50.836;12.060;2022-10-24T14:38:17;20.70;80.70
19110;DHT22;9687;50.836;12.060;2022-10-24T14:40:46;20.70;80.60
19110;DHT22;9687;50.836;12.060;2022-10-24T14:43:16;20.70;80.80
19110;DHT22;9687;50.836;12.060;2022-10-24T14:46:08;20.70;81.10
19110;DHT22;9687;50.836;12.060;2022-10-24T14:48:36;20.70;81.10
19110;DHT22;9687;50.836;12.060;2022-10-24T14:51:05;20.70;81.90
19110;DHT22;9687;50.836;12.060;2022-10-24T14:53:36;20.70;81.20
19110;DHT22;9687;50.836;12.060;2022-10-24T14:56:16;20.70;81.20
19110;DHT22;9687;50.836;12.060;2022-10-24T14:58:49;20.70;81.20
19110;DHT22;9687;50.836;12.060;2022-10-24T15:01:21;20.70;81.40
19110;DHT22;9687;50.836;12.060;2022-10-24T15:03:53;20.70;81.60
19110;DHT22;9687;50.836;12.060;2022-10-24T15:06:23;20.60;81.80
19110;DHT22;9687;50.836;12.060;2022-10-24T15:09:13;20.60;81.90
19110;DHT22;9687;50.836;12.060;2022-10-24T15:11:43;20.60;82.10
19110;DHT22;9687;50.836;12.060;2022-10-24T15:14:35;20.60;82.20
19110;DHT22;9687;50.836;12.060;2022-10-24T15:17:24;20.60;82.30
19110;DHT22;9687;50.836;12.060;2022-10-24T15:19:55;20.60;82.40
19110;DHT22;9687;50.836;12.060;2022-10-24T15:22:28;20.60;82.60
19110;DHT22;9687;50.836;12.060;2022-10-24T15:24:57;20.60;82.70
19110;DHT22;9687;50.836;12.060;2022-10-24T15:27:29;20.50;82.60
19110;DHT22;9687;50.836;12.060;2022-10-24T15:29:57;20.60;82.80
19110;DHT22;9687;50.836;12.060;2022-10-24T15:32:26;20.50;83.00
19110;DHT22;9687;50.836;12.060;2022-10-24T15:34:54;20.50;83.20
19110;DHT22;9687;50.836;12.060;2022-10-24T15:37:29;20.50;83.40
19110;DHT22;9687;50.836;12.060;2022-10-24T15:40:06;20.50;83.50
19110;DHT22;9687;50.836;12.060;2022-10-24T15:42:39;20.50;83.50
19110;DHT22;9687;50.836;12.060;2022-10-24T15:45:14;20.50;83.70
19110;DHT22;9687;50.836;12.060;2022-10-24T15:47:45;20.50;83.90
19110;DHT22;9687;50.836;12.060;2022-10-24T15:50:16;20.50;83.90
19110;DHT22;9687;50.836;12.060;2022-10-24T15:52:49;20.40;83.80
19110;DHT22;9687;50.836;12.060;2022-10-24T15:55:20;20.40;83.80
19110;DHT22;9687;50.836;12.060;2022-10-24T15:57:50;20.40;83.20
19110;DHT22;9687;50.836;12.060;2022-10-24T16:00:20;20.40;83.90
19110;DHT22;9687;50.836;12.060;2022-10-24T16:02:54;20.50;84.00
19110;DHT22;9687;50.836;12.060;2022-10-24T16:05:24;20.40;83.90
19110;DHT22;9687;50.836;12.060;2022-10-24T16:07:53;20.40;84.00
19110;DHT22;9687;50.836;12.060;2022-10-24T16:10:21;20.40;84.20
19110;DHT22;9687;50.836;12.060;2022-10-24T16:12:49;20.30;84.60
19110;DHT22;9687;50.836;12.060;2022-10-24T16:15:20;20.20;84.70
19110;DHT22;9687;50.836;12.060;2022-10-24T16:17:48;20.20;84.70
19110;DHT22;9687;50.836;12.060;2022-10-24T16:20:17;20.20;85.00
19110;DHT22;9687;50.836;12.060;2022-10-24T16:22:45;20.20;85.30
19110;DHT22;9687;50.836;12.060;2022-10-24T16:25:15;20.20;85.20
19110;DHT22;9687;50.836;12.060;2022-10-24T18:33:14;19.40;88.20
19110;DHT22;9687;50.836;12.060;2022-10-24T18:35:42;19.40;88.00
19110;DHT22;9687;50.836;12.060;2022-10-24T18:38:10;19.40;88.20
19110;DHT22;9687;50.836;12.060;2022-10-24T18:40:38;19.40;88.30
19110;DHT22;9687;50.836;12.060;2022-10-24T18:43:08;19.40;88.30
19110;DHT22;9687;50.836;12.060;2022-10-24T18:45:39;19.40;88.30
19110;DHT22;9687;50.836;12.060;2022-10-24T18:48:08;19.40;88.20
19110;DHT22;9687;50.836;12.060;2022-10-24T18:50:38;19.40;88.10
19110;DHT22;9687;50.836;12.060;2022-10-24T18:53:12;19.50;88.10
19110;DHT22;9687;50.836;12.060;2022-10-24T18:55:45;19.50;88.10
19110;DHT22;9687;50.836;12.060;2022-10-24T18:58:29;19.50;88.00
19110;DHT22;9687;50.836;12.060;2022-10-24T19:00:59;19.50;87.90
19110;DHT22;9687;50.836;12.060;2022-10-24T19:03:31;19.50;87.90
19110;DHT22;9687;50.836;12.060;2022-10-24T19:16:19;19.40;87.60
19110;DHT22;9687;50.836;12.060;2022-10-24T19:25:34;19.20;88.00
19110;DHT22;9687;50.836;12.060;2022-10-24T19:28:05;19.20;88.20
19110;DHT22;9687;50.836;12.060;2022-10-24T19:30:46;19.20;88.20
19110;DHT22;9687;50.836;12.060;2022-10-24T19:40:12;19.20;88.30
19110;DHT22;9687;50.836;12.060;2022-10-24T19:42:40;19.20;88.40
19110;DHT22;9687;50.836;12.060;2022-10-24T19:45:07;19.20;88.60
19110;DHT22;9687;50.836;12.060;2022-10-24T19:47:35;19.10;88.60
19110;DHT22;9687;50.836;12.060;2022-10-24T19:50:09;19.10;89.20
19110;DHT22;9687;50.836;12.060;2022-10-24T19:52:37;19.10;88.80
19110;DHT22;9687;50.836;12.060;2022-10-24T19:55:07;19.10;88.80
19110;DHT22;9687;50.836;12.060;2022-10-24T19:57:45;19.10;88.80
19110;DHT22;9687;50.836;12.060;2022-10-24T20:00:18;19.20;88.90
19110;DHT22;9687;50.836;12.060;2022-10-24T20:02:48;20.60;90.20
19110;DHT22;9687;50.836;12.060;2022-10-24T20:05:16;19.20;88.80
19110;DHT22;9687;50.836;12.060;2022-10-24T20:07:45;19.20;88.80
19110;DHT22;9687;50.836;12.060;2022-10-24T20:10:14;21.00;90.40
19110;DHT22;9687;50.836;12.060;2022-10-24T20:12:42;19.30;89.00
19110;DHT22;9687;50.836;12.060;2022-10-24T20:15:11;19.20;88.90
19110;DHT22;9687;50.836;12.060;2022-10-24T20:17:41;19.20;89.00
19110;DHT22;9687;50.836;12.060;2022-10-24T20:20:09;19.20;89.00
19110;DHT22;9687;50.836;12.060;2022-10-24T20:22:41;19.20;89.00
19110;DHT22;9687;50.836;12.060;2022-10-24T20:25:11;19.20;89.20
19110;DHT22;9687;50.836;12.060;2022-10-24T20:27:40;19.20;89.50
19110;DHT22;9687;50.836;12.060;2022-10-24T20:30:12;19.10;89.50
19110;DHT22;9687;50.836;12.060;2022-10-24T20:32:40;19.10;89.90
19110;DHT22;9687;50.836;12.060;2022-10-24T20:35:08;19.20;88.90
19110;DHT22;9687;50.836;12.060;2022-10-24T20:37:35;19.10;89.40
19110;DHT22;9687;50.836;12.060;2022-10-24T20:40:04;19.10;89.20
19110;DHT22;9687;50.836;12.060;2022-10-24T20:42:32;19.10;89.20
19110;DHT22;9687;50.836;12.060;2022-10-24T20:45:00;19.10;89.90
19110;DHT22;9687;50.836;12.060;2022-10-24T20:47:29;19.10;89.20
19110;DHT22;9687;50.836;12.060;2022-10-24T20:49:57;19.10;89.30
19110;DHT22;9687;50.836;12.060;2022-10-24T20:52:25;19.10;89.40
19110;DHT22;9687;50.836;12.060;2022-10-24T20:54:53;19.10;89.70
19110;DHT22;9687;50.836;12.060;2022-10-24T20:57:20;19.10;89.70
19110;DHT22;9687;50.836;12.060;2022-10-24T20:59:48;19.10;89.90
19110;DHT22;9687;50.836;12.060;2022-10-24T21:02:15;19.10;89.90
19110;DHT22;9687;50.836;12.060;2022-10-24T21:04:44;19.00;89.80
19110;DHT22;9687;50.836;12.060;2022-10-24T21:07:11;19.00;90.00
19110;DHT22;9687;50.836;12.060;2022-10-24T21:09:38;19.00;90.00
19110;DHT22;9687;50.836;12.060;2022-10-24T21:12:06;19.00;90.10
19110;DHT22;9687;50.836;12.060;2022-10-24T21:14:34;18.90;90.20
19110;DHT22;9687;50.836;12.060;2022-10-24T21:17:01;18.90;90.20
19110;DHT22;9687;50.836;12.060;2022-10-24T21:19:29;18.90;90.40
19110;DHT22;9687;50.836;12.060;2022-10-24T21:21:59;18.90;90.20
19110;DHT22;9687;50.836;12.060;2022-10-24T21:24:27;18.90;90.20
19110;DHT22;9687;50.836;12.060;2022-10-24T21:26:54;18.90;90.20
19110;DHT22;9687;50.836;12.060;2022-10-24T21:29:22;18.90;90.20
19110;DHT22;9687;50.836;12.060;2022-10-24T21:31:50;18.90;90.10
19110;DHT22;9687;50.836;12.060;2022-10-24T21:34:18;18.90;90.10
19110;DHT22;9687;50.836;12.060;2022-10-24T21:36:45;18.90;90.10
19110;DHT22;9687;50.836;12.060;2022-10-24T21:39:15;18.90;90.10
19110;DHT22;9687;50.836;12.060;2022-10-24T21:41:43;18.90;90.10
19110;DHT22;9687;50.836;12.060;2022-10-24T21:44:11;18.90;90.20
19110;DHT22;9687;50.836;12.060;2022-10-24T21:46:39;18.80;90.10
19110;DHT22;9687;50.836;12.060;2022-10-24T21:49:07;18.80;90.10
19110;DHT22;9687;50.836;12.060;2022-10-24T21:51:36;18.80;90.10
19110;DHT22;9687;50.836;12.060;2022-10-24T21:54:06;18.80;90.10
19110;DHT22;9687;50.836;12.060;2022-10-24T21:56:35;18.80;90.10
19110;DHT22;9687;50.836;12.060;2022-10-24T21:59:05;18.80;90.10
19110;DHT22;9687;50.836;12.060;2022-10-24T22:01:34;18.80;90.10
19110;DHT22;9687;50.836;12.060;2022-10-24T22:04:04;18.90;90.20
19110;DHT22;9687;50.836;12.060;2022-10-24T22:06:33;18.90;90.20
19110;DHT22;9687;50.836;12.060;2022-10-24T22:09:01;18.90;90.20
19110;DHT22;9687;50.836;12.060;2022-10-24T22:11:30;18.90;90.00
19110;DHT22;9687;50.836;12.060;2022-10-24T22:14:00;19.00;90.00
19110;DHT22;9687;50.836;12.060;2022-10-24T22:16:29;19.00;90.00
19110;DHT22;9687;50.836;12.060;2022-10-24T22:18:59;19.00;89.80
19110;DHT22;9687;50.836;12.060;2022-10-24T22:21:28;19.00;89.70
19110;DHT22;9687;50.836;12.060;2022-10-24T22:23:58;19.00;89.50
19110;DHT22;9687;50.836;12.060;2022-10-24T22:26:27;19.10;89.40
19110;DHT22;9687;50.836;12.060;2022-10-24T22:28:55;19.10;89.30
